Terminal Aerodrome Forecast
Issued by NWS

Home | Current Version | Previous Version | Text Only | Print | Product List | Glossary On
Versions: 1 2 3 4 5 6 7 8 9 10 11 12 13 14 15 16 17 18 19 20 21 22 23 24 25 26 27 28 29 30 31 32 33 34 35
000
FTUS45 KSLC 220536
TAFLGU
TAF
KLGU 220536Z 2206/2306 VRB05KT P6SM VCSH SCT100 SCT150
      TEMPO 2206/2207 25010G16KT P6SM -SHRA BKN080
     FM221000 17010KT P6SM SCT080 BKN100
     FM221900 20010KT P6SM -SHRA BKN070 OVC090
     FM222200 25010KT P6SM -RA OVC060
     FM230100 34005KT P6SM -SHRA BKN060 OVC070=

USA.gov is the U.S. government's official web portal to all federal, state and local government web resources and services.